Flight Track Log - Related Links

Times and Time Zones

All times are in EDT time to prevent confusion due to time zone crossing. See the UAL1208 flight status page for this flight to view local times or setup timezone preferences in your user account.

Time Position Orientation Groundspeed Altitude Reporting Facility
EDT Latitude Longitude Course Direction KTS MPH feet Rate Location/Type
Sun 03:03:44 AM 33.9336 -118.4444 40° Northeast 191 220 1,200  Level Los Angeles Center
Sun 03:04:44 AM 33.8925 -118.5128 234° Southwest 232 267 3,400 2,033 Climbing Los Angeles Center
Sun 03:05:00 AM 33.7692 -118.6255 132° Southeast  Level FlightAware Approximate
Sun 03:05:45 AM 33.8314 -118.5581 212° Southwest 280 322 5,300  Level Los Angeles Center
Sun 03:06:00 AM 33.6850 -118.5188 134° Southeast  Level FlightAware Approximate
Sun 03:06:45 AM 33.7644 -118.5397 167° South 288 331 7,700  Level Los Angeles Center
Sun 03:07:00 AM 33.6486 -118.3805 121° Southeast  Level FlightAware Approximate
Sun 03:07:46 AM 33.6869 -118.4872 151° Southeast 287 330 10,700  Level Los Angeles Center
Sun 03:08:00 AM 33.6333 -118.2387 90° East  Level FlightAware Approximate
Sun 03:08:46 AM 33.6567 -118.3919 111° Southeast 314 361 11,900  Level Los Angeles Center
Sun 03:09:00 AM 33.6869 -118.1298 40° Northeast  Level FlightAware Approximate
Sun 03:09:46 AM 33.6422 -118.2722 98° East 369 425 13,600  Level Los Angeles Center
Sun 03:10:47 AM 33.6703 -118.1556 74° East 389 448 15,600 1,736 Climbing Los Angeles Center
Sun 03:11:47 AM 33.7403 -118.0925 37° Northeast 400 460 17,100 1,900 Climbing Los Angeles Center
Sun 03:12:47 AM 33.8500 -117.9936 37° Northeast 412 474 19,400 2,033 Climbing Los Angeles Center
Sun 03:13:48 AM 33.9433 -117.9108 36° Northeast 417 480 21,200 1,579 Climbing Los Angeles Center
Sun 03:15:00 AM 34.0383 -117.8239 37° Northeast 426 490 22,900 1,579 Climbing Los Angeles Center
Sun 03:16:01 AM 34.1444 -117.7050 43° Northeast 437 503 24,700 1,587 Climbing Los Angeles Center
Sun 03:17:01 AM 34.2261 -117.5939 48° Northeast 444 511 26,100 1,550 Climbing Los Angeles Center
Sun 03:18:01 AM 34.3078 -117.4825 48° Northeast 445 512 27,800 1,686 Climbing Los Angeles Center
Sun 03:19:02 AM 34.3958 -117.3600 49° Northeast 439 505 29,500 1,587 Climbing Los Angeles Center
Sun 03:20:02 AM 34.4750 -117.2506 49° Northeast 436 502 31,000 1,450 Climbing Los Angeles Center
Sun 03:21:02 AM 34.5522 -117.1447 48° Northeast 426 490 32,400 1,400 Climbing Los Angeles Center
Sun 03:22:02 AM 34.6269 -117.0406 49° Northeast 415 478 33,800 1,240 Climbing Los Angeles Center
Sun 03:23:03 AM 34.7014 -116.9392 48° Northeast 407 468 34,900 645 Climbing Los Angeles Center
Sun 03:24:03 AM 34.7739 -116.8378 49° Northeast 401 461 35,100 100 Climbing Los Angeles Center
Sun 03:25:03 AM 34.8469 -116.7356 49° Northeast 402 463 35,100  Level Los Angeles Center
Sun 03:26:04 AM 34.9206 -116.6333 49° Northeast 403 464 35,100  Level Los Angeles Center
Sun 03:27:04 AM 34.9847 -116.5231 55° Northeast 403 464 35,100  Level Los Angeles Center
Sun 03:28:04 AM 35.0358 -116.3997 63° Northeast 410 472 35,100  Level Los Angeles Center
Sun 03:29:05 AM 35.0856 -116.2767 64° Northeast 406 467 35,100  Level Los Angeles Center
Sun 03:30:05 AM 35.1378 -116.1550 62° Northeast 407 468 35,100  Level Los Angeles Center
Sun 03:31:05 AM 35.1881 -116.0325 63° Northeast 405 466 35,100  Level Los Angeles Center
Sun 03:32:05 AM 35.2367 -115.9108 64° Northeast 401 461 35,100  Level Los Angeles Center
Sun 03:33:06 AM 35.2883 -115.7875 63° Northeast 407 468 35,100  Level Los Angeles Center
Sun 03:34:06 AM 35.3397 -115.6628 63° Northeast 410 472 35,100  Level Los Angeles Center
Sun 03:35:10 AM 35.3947 -115.5233 64° Northeast 409 471 35,100  Level Los Angeles Center
Sun 03:36:10 AM 35.4453 -115.3972 64° Northeast 413 475 35,100  Level Los Angeles Center
Sun 03:37:10 AM 35.4992 -115.2711 62° Northeast 419 482 35,100  Level Los Angeles Center
Sun 03:38:11 AM 35.5497 -115.1431 64° Northeast 418 481 35,100  Level Los Angeles Center
Sun 03:39:11 AM 35.6108 -114.9869 64° Northeast 423 487 35,100  Level Los Angeles Center
Sun 03:40:11 AM 35.6611 -114.8608 64° Northeast 416 479 35,100  Level Los Angeles Center
Sun 03:41:12 AM 35.7119 -114.7328 64° Northeast 417 480 35,100  Level Los Angeles Center
Sun 03:42:12 AM 35.7644 -114.6033 63° Northeast 423 487 35,100  Level Los Angeles Center
Sun 03:43:12 AM 35.8158 -114.4739 64° Northeast 423 487 35,100  Level Los Angeles Center
Sun 03:44:12 AM 35.8661 -114.3450 64° Northeast 420 483 35,100  Level Los Angeles Center
Sun 03:45:13 AM 35.9161 -114.2186 64° Northeast 416 479 35,100  Level Los Angeles Center
Sun 03:46:13 AM 35.9653 -114.0911 64° Northeast 413 475 35,100  Level Los Angeles Center
Sun 03:47:13 AM 36.0144 -113.9633 65° Northeast 413 475 35,100  Level Los Angeles Center
Sun 03:48:13 AM 36.0644 -113.8364 64° Northeast 412 474 35,100  Level Los Angeles Center
Sun 03:49:14 AM 36.1161 -113.7081 63° Northeast 415 478 35,100  Level Los Angeles Center
Sun 03:50:14 AM 36.1658 -113.5811 64° Northeast 413 475 35,100  Level Los Angeles Center
Sun 03:51:14 AM 36.2156 -113.4522 64° Northeast 414 476 35,100  Level Los Angeles Center
Sun 03:52:14 AM 36.2664 -113.3231 64° Northeast 417 480 35,100  Level Los Angeles Center
Sun 03:53:14 AM 36.3164 -113.1967 64° Northeast 416 479 35,100  Level Los Angeles Center
Sun 03:54:15 AM 36.3650 -113.0700 64° Northeast 412 474 35,100  Level Los Angeles Center
Sun 03:55:15 AM 36.4150 -112.9417 64° Northeast 414 476 35,100  Level Los Angeles Center
Sun 03:56:15 AM 36.4644 -112.8125 65° Northeast 415 478 35,100  Level Los Angeles Center
Sun 03:57:15 AM 36.5133 -112.6858 64° Northeast 411 473 35,100  Level Los Angeles Center
Sun 03:58:16 AM 36.5614 -112.5597 65° Northeast 407 468 35,100  Level Los Angeles Center
Sun 03:59:16 AM 36.6103 -112.4325 64° Northeast 409 471 35,100  Level Los Angeles Center
Sun 04:00:16 AM 36.6589 -112.3064 64° Northeast 407 468 35,100  Level Los Angeles Center
Sun 04:01:16 AM 36.7067 -112.1797 65° Northeast 407 468 35,100  Level Los Angeles Center
Sun 04:02:16 AM 36.7539 -112.0528 65° Northeast 406 467 35,100  Level Los Angeles Center
Sun 04:02:43 AM 36.7725 -112.0033 65° Northeast 404 465 35,100  Level Denver Center
Sun 04:03:43 AM 36.8197 -111.8756 65° Northeast 406 467 35,100  Level Denver Center
Sun 04:04:43 AM 36.8772 -111.7239 65° Northeast 406 467 35,100  Level Denver Center
Sun 04:05:44 AM 36.9253 -111.5947 65° Northeast 410 472 35,100  Level Denver Center
Sun 04:06:44 AM 36.9736 -111.4672 65° Northeast 409 471 35,100  Level Denver Center
Sun 04:07:44 AM 37.0189 -111.3389 66° East 409 471 35,100  Level Denver Center
Sun 04:08:45 AM 37.0667 -111.2100 65° Northeast 411 473 35,100  Level Denver Center
Sun 04:09:45 AM 37.1147 -111.0794 65° Northeast 414 476 35,100  Level Denver Center
Sun 04:10:46 AM 37.1611 -110.9483 66° East 414 476 35,100  Level Denver Center
Sun 04:11:46 AM 37.2092 -110.8169 65° Northeast 417 480 35,100  Level Denver Center
Sun 04:12:46 AM 37.2561 -110.6856 66° East 418 481 35,100  Level Denver Center
Sun 04:13:47 AM 37.3061 -110.5533 65° Northeast 419 482 35,100  Level Denver Center
Sun 04:14:47 AM 37.3519 -110.4214 66° East 416 479 35,100  Level Denver Center
Sun 04:15:47 AM 37.3992 -110.2881 66° East 417 480 35,100  Level Denver Center
Sun 04:16:48 AM 37.4431 -110.1586 67° East 419 482 35,100  Level Denver Center
Sun 04:17:48 AM 37.4981 -110.0081 65° Northeast 422 486 35,100  Level Denver Center
Sun 04:18:48 AM 37.5344 -109.8744 71° East 423 487 35,100  Level Denver Center
Sun 04:19:49 AM 37.5700 -109.7411 71° East 420 483 35,100  Level Denver Center
Sun 04:20:49 AM 37.6056 -109.6056 72° East 423 487 35,100  Level Denver Center
Sun 04:21:49 AM 37.6478 -109.4475 71° East 425 489 35,100  Level Denver Center
Sun 04:22:50 AM 37.6833 -109.3114 72° East 425 489 35,100  Level Denver Center
Sun 04:23:50 AM 37.7194 -109.1761 71° East 424 488 35,100  Level Denver Center
Sun 04:24:50 AM 37.7606 -109.0153 72° East 430 495 35,100  Level Denver Center
Sun 04:25:51 AM 37.7964 -108.8783 72° East 428 493 35,100  Level Denver Center
Sun 04:26:51 AM 37.8317 -108.7431 72° East 425 489 35,100  Level Denver Center
Sun 04:27:51 AM 37.8669 -108.6042 72° East 429 494 35,100  Level Denver Center
Sun 04:29:15 AM 37.9133 -108.4222 72° East 428 493 35,100  Level Denver Center
Sun 04:30:16 AM 37.9536 -108.2628 72° East 427 491 35,100  Level Denver Center
Sun 04:31:16 AM 37.9933 -108.1061 72° East 421 484 35,100  Level Denver Center
Sun 04:32:16 AM 38.0278 -107.9689 72° East 424 488 35,100  Level Denver Center
Sun 04:33:17 AM 38.0628 -107.8297 72° East 431 496 35,100  Level Denver Center
Sun 04:34:17 AM 38.1006 -107.6769 73° East 429 494 35,100  Level Denver Center
Sun 04:35:17 AM 38.1336 -107.5381 73° East 430 495 35,100  Level Denver Center
Sun 04:36:18 AM 38.1742 -107.3767 72° East 430 495 35,100  Level Denver Center
Sun 04:37:18 AM 38.2078 -107.2383 73° East 430 495 35,100  Level Denver Center
Sun 04:38:18 AM 38.2389 -107.1072 73° East 429 494 35,100  Level Denver Center
Sun 04:39:18 AM 38.2739 -106.9631 73° East 429 494 35,100  Level Denver Center
Sun 04:40:19 AM 38.3128 -106.8003 73° East 430 495 35,100  Level Denver Center
Sun 04:41:19 AM 38.3458 -106.6611 73° East 430 495 35,100  Level Denver Center
Sun 04:42:19 AM 38.3767 -106.5278 74° East 430 495 35,100 -50 Level Denver Center
Sun 04:43:19 AM 38.4117 -106.3800 73° East 436 502 35,000 -50 Descending Denver Center
Sun 04:44:20 AM 38.4467 -106.2317 73° East 437 503 35,000 50 Level Denver Center
Sun 04:45:20 AM 38.4831 -106.0697 74° East 435 501 35,100 50 Climbing Denver Center
Sun 04:46:20 AM 38.5158 -105.9278 74° East 434 499 35,100  Level Denver Center
Sun 04:47:21 AM 38.5531 -105.7628 74° East 433 498 35,100  Level Denver Center
Sun 04:48:21 AM 38.5853 -105.6208 74° East 434 499 35,100  Level Denver Center
Sun 04:49:21 AM 38.6186 -105.4756 74° East 442 509 35,100  Level Denver Center
Sun 04:50:21 AM 38.6503 -105.3325 74° East 438 504 35,100  Level Denver Center
Sun 04:51:22 AM 38.6867 -105.1639 74° East 439 505 35,100  Level Denver Center
Sun 04:52:22 AM 38.7186 -105.0186 74° East 441 507 35,100 -50 Level Denver Center
Sun 04:53:22 AM 38.7489 -104.8736 75° East 441 507 35,000  Descending Denver Center
Sun 04:54:22 AM 38.7811 -104.7269 74° East 445 512 35,100 50 Climbing Denver Center
Sun 04:55:23 AM 38.8183 -104.5531 75° East 451 519 35,100  Level Denver Center
Sun 04:56:23 AM 38.8494 -104.4050 75° East 451 519 35,100  Level Denver Center
Sun 04:57:23 AM 38.8800 -104.2578 75° East 447 514 35,100  Level Denver Center
Sun 04:58:24 AM 38.9156 -104.0858 75° East 446 513 35,100  Level Denver Center
Sun 04:59:24 AM 38.9464 -103.9389 75° East 444 511 35,100  Level Denver Center
Sun 05:00:24 AM 38.9767 -103.7914 75° East 445 512 35,100  Level Denver Center
Sun 05:01:24 AM 39.0069 -103.6447 75° East 444 511 35,100  Level Denver Center
Sun 05:02:24 AM 39.0419 -103.4700 75° East 450 518 35,100  Level Denver Center
Sun 05:03:25 AM 39.0725 -103.3214 75° East 450 518 35,100  Level Denver Center
Sun 05:04:25 AM 39.1022 -103.1725 76° East 449 517 35,100  Level Denver Center
Sun 05:05:25 AM 39.1319 -103.0236 76° East 448 516 35,100  Level Denver Center
Sun 05:06:25 AM 39.1661 -102.8503 76° East 446 513 35,100  Level Denver Center
Sun 05:07:26 AM 39.1944 -102.7092 75° East 445 512 35,100  Level Denver Center
Sun 05:08:26 AM 39.2281 -102.5339 76° East 450 518 35,100  Level Denver Center
Sun 05:09:26 AM 39.2569 -102.3856 76° East 447 514 35,100  Level Denver Center
Sun 05:10:26 AM 39.2858 -102.2358 76° East 449 517 35,100  Level Denver Center
Sun 05:11:27 AM 39.3136 -102.0839 77° East 453 521 35,100  Level Denver Center
Sun 05:12:27 AM 39.3464 -101.9147 76° East 456 525 35,100  Level Denver Center
Sun 05:13:27 AM 39.3744 -101.7625 77° East 456 525 35,100  Level Denver Center
Sun 05:14:27 AM 39.4031 -101.6092 76° East 459 528 35,100 -50 Level Denver Center
Sun 05:15:28 AM 39.4350 -101.4317 77° East 456 525 35,000 -50 Descending Denver Center
Sun 05:16:28 AM 39.4628 -101.2786 77° East 457 526 35,000 50 Level Denver Center
Sun 05:17:28 AM 39.4900 -101.1272 77° East 455 524 35,100 50 Climbing Denver Center
Sun 05:18:28 AM 39.5214 -100.9486 77° East 456 525 35,100 -50 Level Denver Center
Sun 05:19:29 AM 39.5483 -100.7961 77° East 457 526 35,000 -45 Descending Denver Center
Sun 05:20:41 AM 39.5742 -100.6428 78° East 456 525 35,000 45 Level Denver Center
Sun 05:21:41 AM 39.6094 -100.4392 77° East 455 524 35,100 50 Climbing Denver Center
Sun 05:22:41 AM 39.6350 -100.2869 78° East 455 524 35,100  Level Denver Center
Sun 05:23:41 AM 39.6617 -100.1347 77° East 455 524 35,100  Level Denver Center
Sun 05:24:42 AM 39.6917 -99.9558 78° East 455 524 35,100  Level Denver Center
Sun 05:25:42 AM 39.7161 -99.8083 78° East 454 522 35,100  Level Denver Center
Sun 05:26:42 AM 39.7425 -99.6453 78° East 460 529 35,100  Level Denver Center
Sun 05:27:42 AM 39.7694 -99.4822 78° East 463 533 35,100 -50 Level Denver Center
Sun 05:28:42 AM 39.7956 -99.3175 78° East 466 536 35,000  Descending Denver Center
Sun 05:29:43 AM 39.8225 -99.1522 78° East 468 539 35,100 50 Climbing Denver Center
Sun 05:30:43 AM 39.8478 -98.9878 79° East 465 535 35,100 -50 Level Denver Center
Sun 05:31:43 AM 39.8742 -98.8222 78° East 468 539 35,000 -50 Descending Denver Center
Sun 05:32:43 AM 39.8997 -98.6594 78° East 462 532 35,000 50 Level Denver Center
Sun 05:33:43 AM 39.9256 -98.4947 78° East 465 535 35,100  Climbing Denver Center
Sun 05:34:56 AM 39.9550 -98.2992 79° East 463 533 35,000  Descending Minneapolis Center
Sun 05:35:57 AM 39.9786 -98.1356 79° East 461 531 35,100 50 Climbing Minneapolis Center
Sun 05:36:57 AM 40.0036 -97.9711 79° East 463 533 35,100  Level Minneapolis Center
Sun 05:37:57 AM 40.0306 -97.8092 78° East 460 529 35,100 -50 Level Minneapolis Center
Sun 05:38:57 AM 40.0581 -97.6456 78° East 462 532 35,000  Descending Minneapolis Center
Sun 05:39:58 AM 40.0842 -97.4831 78° East 460 529 35,100 545 Climbing Minneapolis Center
Sun 05:40:58 AM 40.1106 -97.3178 78° East 459 528 36,100 700 Climbing Minneapolis Center
Sun 05:41:58 AM 40.1375 -97.1517 78° East 464 534 36,500 500 Climbing Minneapolis Center
Sun 05:42:58 AM 40.1642 -96.9833 78° East 472 543 37,100 298 Climbing Minneapolis Center
Sun 05:43:59 AM 40.1906 -96.8153 78° East 474 545 37,100  Level Minneapolis Center
Sun 05:44:59 AM 40.2167 -96.6464 79° East 475 547 37,100  Level Minneapolis Center
Sun 05:45:59 AM 40.2417 -96.4783 79° East 474 545 37,100  Level Minneapolis Center
Sun 05:46:59 AM 40.2672 -96.3097 79° East 474 545 37,100  Level Minneapolis Center
Sun 05:47:59 AM 40.2928 -96.1389 79° East 476 548 37,100  Level Minneapolis Center
Sun 05:49:00 AM 40.3183 -95.9706 79° East 476 548 37,100  Level Minneapolis Center
Sun 05:50:00 AM 40.3439 -95.7958 79° East 482 555 37,100  Level Minneapolis Center
Sun 05:51:00 AM 40.3689 -95.6256 79° East 480 552 37,100  Level Minneapolis Center
Sun 05:52:00 AM 40.3981 -95.4197 79° East 480 552 37,100  Level Minneapolis Center
Sun 05:53:00 AM 40.4225 -95.2489 79° East 479 551 37,100  Level Minneapolis Center
Sun 05:54:01 AM 40.4475 -95.0769 79° East 480 552 37,100  Level Minneapolis Center
Sun 05:55:01 AM 40.4722 -94.9036 79° East 483 556 37,100  Level Minneapolis Center
Sun 05:56:01 AM 40.4958 -94.7297 80° East 485 558 37,100  Level Minneapolis Center
Sun 05:57:01 AM 40.5197 -94.5547 80° East 487 560 37,100  Level Minneapolis Center
Sun 05:58:02 AM 40.5417 -94.3944 80° East 490 564 37,100  Level Minneapolis Center
Sun 05:59:02 AM 40.5628 -94.2183 81° East 492 566 37,100  Level Minneapolis Center
Sun 06:00:02 AM 40.5872 -94.0397 80° East 496 571 37,100  Level Minneapolis Center
Sun 06:01:02 AM 40.6081 -93.8614 81° East 497 572 37,100  Level Minneapolis Center
Sun 06:02:02 AM 40.6286 -93.6811 81° East 500 575 37,100  Level Minneapolis Center
Sun 06:03:03 AM 40.6506 -93.4975 81° East 505 581 37,100  Level Minneapolis Center
Sun 06:04:03 AM 40.6731 -93.3144 81° East 507 583 37,100  Level Minneapolis Center
Sun 06:05:03 AM 40.6933 -93.1308 82° East 509 586 37,100  Level Minneapolis Center
Sun 06:06:03 AM 40.7139 -92.9461 82° East 511 588 37,100  Level Minneapolis Center
Sun 06:07:10 AM 40.7369 -92.7258 82° East 504 580 37,100  Level Chicago Center
Sun 06:08:10 AM 40.7575 -92.5417 82° East 505 581 37,100  Level Chicago Center
Sun 06:09:11 AM 40.7769 -92.3583 82° East 505 581 37,100  Level Chicago Center
Sun 06:10:11 AM 40.7964 -92.1736 82° East 508 585 37,100  Level Chicago Center
Sun 06:11:11 AM 40.8156 -91.9897 82° East 508 585 37,100  Level Chicago Center
Sun 06:12:11 AM 40.8333 -91.8064 83° East 508 585 37,100  Level Chicago Center
Sun 06:13:12 AM 40.8511 -91.6231 83° East 506 582 37,100  Level Chicago Center
Sun 06:14:12 AM 40.8692 -91.4386 83° East 508 585 37,100  Level Chicago Center
Sun 06:15:12 AM 40.8892 -91.2436 82° East 503 579 37,100  Level Chicago Center
Sun 06:16:13 AM 40.9053 -91.0614 83° East 500 575 37,100  Level Chicago Center
Sun 06:17:13 AM 40.9228 -90.8783 83° East 501 577 37,100  Level Chicago Center
Sun 06:18:13 AM 40.9408 -90.6931 83° East 506 582 37,100  Level Chicago Center
Sun 06:19:13 AM 40.9556 -90.5089 84° East 505 581 37,100  Level Chicago Center
Sun 06:20:14 AM 40.9722 -90.3208 83° East 510 587 37,100  Level Chicago Center
Sun 06:21:14 AM 40.9881 -90.1375 83° East 512 589 37,100  Level Chicago Center
Sun 06:22:14 AM 41.0064 -89.9444 83° East 509 586 37,100  Level Chicago Center
Sun 06:23:15 AM 41.0233 -89.7944 81° East 508 585 37,100  Level Chicago Center
Sun 06:24:15 AM 41.0436 -89.6072 82° East 509 586 37,100  Level Chicago Center
Sun 06:25:15 AM 41.0639 -89.4211 82° East 508 585 37,100  Level Chicago Center
Sun 06:26:15 AM 41.0825 -89.2361 82° East 505 581 37,100  Level Chicago Center
Sun 06:27:16 AM 41.1036 -89.0350 82° East 507 583 37,100  Level Chicago Center
Sun 06:28:16 AM 41.1228 -88.8503 82° East 508 585 37,100  Level Chicago Center
Sun 06:29:16 AM 41.1403 -88.6650 83° East 512 589 37,100  Level Chicago Center
Sun 06:30:17 AM 41.1586 -88.4794 82° East 512 589 37,100 -50 Level Chicago Center
Sun 06:31:17 AM 41.1767 -88.2939 83° East 513 590 37,000  Descending Chicago Center
Sun 06:32:17 AM 41.1956 -88.1100 82° East 514 592 37,100 50 Climbing Chicago Center
Sun 06:33:18 AM 41.2150 -87.8914 83° East 510 587 37,100  Level Chicago Center
Sun 06:34:18 AM 41.2317 -87.7058 83° East 513 590 37,100  Level Chicago Center
Sun 06:35:19 AM 41.2494 -87.5211 83° East 511 588 37,100  Level Chicago Center
Sun 06:36:19 AM 41.2653 -87.3356 83° East 509 586 37,100  Level Chicago Center
Sun 06:37:19 AM 41.2808 -87.1500 84° East 509 586 37,100  Level Chicago Center
Sun 06:38:20 AM 41.2969 -86.9631 83° East 514 592 37,100  Level Chicago Center
Sun 06:39:20 AM 41.3119 -86.7753 84° East 516 594 37,100  Level Chicago Center
Sun 06:40:20 AM 41.3269 -86.5931 84° East 521 600 37,100 -50 Level Chicago Center
Sun 06:41:21 AM 41.3414 -86.4022 84° East 521 600 37,000  Descending Chicago Center
Sun 06:42:21 AM 41.3561 -86.2128 84° East 520 598 37,100 50 Climbing Chicago Center
Sun 06:43:21 AM 41.3694 -86.0228 85° East 520 598 37,100  Level Chicago Center
Sun 06:44:22 AM 41.3828 -85.8317 85° East 523 602 37,100  Level Chicago Center
Sun 06:45:22 AM 41.3964 -85.6425 84° East 521 600 37,100  Level Chicago Center
Sun 06:46:22 AM 41.4125 -85.4153 85° East 522 601 37,100  Level Chicago Center
Sun 06:47:23 AM 41.4256 -85.2289 85° East 518 596 37,100  Level Chicago Center
Sun 06:48:23 AM 41.4372 -85.0394 85° East 520 598 37,100  Level Chicago Center
Sun 06:49:24 AM 41.4497 -84.8511 85° East 517 595 37,100  Level Chicago Center
Sun 06:50:24 AM 41.4619 -84.6600 85° East 520 598 37,100  Level Chicago Center
Sun 06:51:10 AM 41.4683 -84.5378 86° East 517 595 37,100 -57 Level Cleveland Center
Sun 06:52:10 AM 41.4822 -84.3114 85° East 518 596 37,000  Descending Cleveland Center
Sun 06:53:10 AM 41.4897 -84.1456 86° East 506 582 37,100 50 Climbing Cleveland Center
Sun 06:54:10 AM 41.4994 -83.9603 86° East 500 575 37,100  Level Cleveland Center
Sun 06:55:10 AM 41.5014 -83.7494 89° East 500 575 37,100  Level Cleveland Center
Sun 06:56:10 AM 41.5042 -83.5639 89° East 500 575 37,100 -50 Level Cleveland Center
Sun 06:57:10 AM 41.5069 -83.3781 89° East 494 568 37,000  Descending Cleveland Center
Sun 06:58:10 AM 41.5092 -83.1953 89° East 494 568 37,100 50 Climbing Cleveland Center
Sun 06:59:10 AM 41.5131 -83.0067 88° East 494 568 37,100  Level Cleveland Center
Sun 07:00:10 AM 41.5128 -82.8208 90° East 501 577 37,100  Level Cleveland Center
Sun 07:01:10 AM 41.5161 -82.6408 89° East 496 571 37,100  Level Cleveland Center
Sun 07:02:10 AM 41.5150 -82.4717 90° East 496 571 37,100  Level Cleveland Center
Sun 07:03:10 AM 41.5178 -82.2858 89° East 496 571 37,100  Level Cleveland Center
Sun 07:04:10 AM 41.5164 -82.0972 91° East 502 578 37,100  Level Cleveland Center
Sun 07:05:10 AM 41.5186 -81.9058 89° East 509 586 37,100 -50 Level Cleveland Center
Sun 07:06:10 AM 41.5167 -81.7008 91° East 509 586 37,000  Descending Cleveland Center
Sun 07:07:10 AM 41.5183 -81.5122 89° East 514 592 37,100 50 Climbing Cleveland Center
Sun 07:08:10 AM 41.5178 -81.3236 90° East 514 592 37,100  Level Cleveland Center
Sun 07:09:10 AM 41.5147 -81.1350 91° East 509 586 37,100  Level Cleveland Center
Sun 07:10:10 AM 41.5175 -80.9464 89° East 509 586 37,100  Level Cleveland Center
Sun 07:11:10 AM 41.5200 -80.7522 89° East 509 586 37,100  Level Cleveland Center
Sun 07:12:10 AM 41.5222 -80.5831 89° East 509 586 37,100  Level Cleveland Center
Sun 07:13:10 AM 41.5242 -80.3917 89° East 514 592 37,100  Level Cleveland Center
Sun 07:14:10 AM 41.5258 -80.2003 89° East 514 592 37,100  Level Cleveland Center
Sun 07:15:10 AM 41.5250 -80.0117 90° East 514 592 37,100  Level Cleveland Center
Sun 07:16:10 AM 41.5261 -79.8258 89° East 508 585 37,100  Level Cleveland Center
Sun 07:17:10 AM 41.5267 -79.6375 90° East 508 585 37,100  Level Cleveland Center
Sun 07:18:10 AM 41.5250 -79.4517 91° East 508 585 37,100  Level Cleveland Center
Sun 07:19:10 AM 41.5250 -79.2603 90° East 503 579 37,100  Level Cleveland Center
Sun 07:20:10 AM 41.5247 -79.0717 90° East 503 579 37,100 -50 Level Cleveland Center
Sun 07:21:10 AM 41.5242 -78.8831 90° East 503 579 37,000 -50 Descending Cleveland Center
Sun 07:22:10 AM 41.5214 -78.6917 91° East 508 585 37,000 -437 Level Cleveland Center
Sun 07:23:41 AM 41.5175 -78.4072 91° East 515 593 35,900 -1,451 Descending New York Center
Sun 07:24:43 AM 41.5169 -78.2214 90° East 515 593 33,300 -2,430 Descending New York Center
Sun 07:25:42 AM 41.5142 -78.0300 91° East 515 593 31,000 -1,150 Descending New York Center
Sun 07:26:43 AM 41.4958 -77.8506 98° East 509 586 31,000  Level New York Center
Sun 07:27:43 AM 41.4728 -77.6764 100° East 495 570 31,000  Level New York Center
Sun 07:28:43 AM 41.4453 -77.4992 102° East 487 560 31,000  Level New York Center
Sun 07:29:42 AM 41.4144 -77.3053 102° East 482 555 31,000  Level New York Center
Sun 07:30:42 AM 41.3906 -77.1314 100° East 482 555 31,000  Level New York Center
Sun 07:31:43 AM 41.3647 -76.9519 101° East 482 555 31,000 -99 Level New York Center
Sun 07:32:43 AM 41.3358 -76.7808 103° East 482 555 30,800 -1,664 Descending New York Center
Sun 07:33:42 AM 41.2961 -76.6197 108° East 471 542 27,700 -2,773 Descending New York Center
Sun 07:34:42 AM 41.2517 -76.4614 110° East 464 534 25,300 -2,281 Descending New York Center
Sun 07:35:43 AM 41.2144 -76.3231 110° East 451 519 23,100 -2,150 Descending New York Center
Sun 07:36:42 AM 41.1736 -76.1736 110° East 440 506 21,000 -1,500 Descending New York Center
Sun 07:37:43 AM 41.1344 -76.0244 109° East 428 493 20,100 -1,714 Descending New York Center
Sun 07:38:41 AM 41.0914 -75.8614 109° East 428 493 17,600 -2,420 Descending New York Center
Sun 07:39:42 AM 41.0553 -75.7350 111° Southeast 415 478 15,300 -2,281 Descending New York Center
Sun 07:40:42 AM 41.0136 -75.5806 110° East 408 470 13,000 -1,140 Descending New York Center
Sun 07:41:43 AM 40.9828 -75.4683 110° East 388 447 13,000 -252 Level New York Center
Sun 07:42:41 AM 40.9517 -75.3564 110° East 339 390 12,500 -915 Descending New York Center
Sun 07:43:41 AM 40.9206 -75.2472 111° Southeast 318 366 11,200 -1,438 Descending New York Center
Sun 07:44:42 AM 40.8875 -75.1269 110° East 318 366 9,600 -1,500 Descending New York Center
Sun 07:45:41 AM 40.8558 -75.0208 112° Southeast 312 359 8,200 -1,311 Descending New York Center
Sun 07:46:41 AM 40.8475 -74.9106 96° East 307 353 7,000 -942 Descending New York Center
Sun 07:47:42 AM 40.8678 -74.8019 76° East 299 344 6,300 -496 Descending New York Center
Sun 07:48:42 AM 40.8858 -74.6961 77° East 299 344 6,000 -397 Descending New York Center
Sun 07:49:43 AM 40.8997 -74.5897 80° East 294 338 5,500 -492 Descending New York Center
Sun 07:50:44 AM 40.9158 -74.4836 79° East 294 338 5,000 -254 Descending New York Center
Sun 07:51:41 AM 40.9272 -74.3825 81° East 289 333 5,000  Level New York Center
Sun 07:52:41 AM 40.9428 -74.2819 78° East 289 333 5,000  Level New York Center
Sun 07:53:41 AM 40.9536 -74.1944 81° East 277 319 5,000 -350 Level New York Center
Sun 07:54:41 AM 40.9267 -74.1217 116° Southeast 225 259 4,300 -942 Descending New York Center
Sun 07:55:42 AM 40.8844 -74.0703 137° Southeast 190 219 3,100 -689 Descending New York Center
Sun 07:56:43 AM 40.8333 -74.0833 191° South 200 230 2,900 -626 Descending New York TRACON
Sun 07:57:37 AM 40.7833 -74.1000 194° South 195 224 1,900 -1,111 Descending New York TRACON

Login

Don't have an account? Register now (free) for customized features, flight alerts, and more!